sensor_id;sensor_type;location;lat;lon;timestamp;P1;durP1;ratioP1;P2;durP2;ratioP2
82635;SDS011;72317;37.280;-121.948;2023-09-18T00:00:48;7.03;;;3.35;;
82635;SDS011;72317;37.280;-121.948;2023-09-18T00:03:18;5.50;;;3.50;;
82635;SDS011;72317;37.280;-121.948;2023-09-18T00:05:48;4.70;;;3.30;;
82635;SDS011;72317;37.280;-121.948;2023-09-18T00:08:15;5.03;;;3.55;;
82635;SDS011;72317;37.280;-121.948;2023-09-18T00:10:42;4.07;;;3.25;;
82635;SDS011;72317;37.280;-121.948;2023-09-18T00:13:12;4.35;;;3.40;;
82635;SDS011;72317;37.280;-121.948;2023-09-18T00:15:39;4.93;;;3.40;;
82635;SDS011;72317;37.280;-121.948;2023-09-18T00:18:06;4.97;;;3.33;;
82635;SDS011;72317;37.280;-121.948;2023-09-18T00:20:33;4.55;;;3.40;;
82635;SDS011;72317;37.280;-121.948;2023-09-18T00:23:00;5.65;;;3.40;;
82635;SDS011;72317;37.280;-121.948;2023-09-18T00:25:26;5.57;;;3.70;;
82635;SDS011;72317;37.280;-121.948;2023-09-18T00:27:52;4.78;;;3.45;;
82635;SDS011;72317;37.280;-121.948;2023-09-18T00:30:18;5.95;;;3.40;;
82635;SDS011;72317;37.280;-121.948;2023-09-18T00:32:45;5.03;;;3.30;;
82635;SDS011;72317;37.280;-121.948;2023-09-18T00:35:12;4.53;;;3.40;;
82635;SDS011;72317;37.280;-121.948;2023-09-18T00:37:38;6.35;;;3.60;;
82635;SDS011;72317;37.280;-121.948;2023-09-18T00:40:05;4.10;;;3.33;;
82635;SDS011;72317;37.280;-121.948;2023-09-18T00:42:32;3.70;;;3.30;;
82635;SDS011;72317;37.280;-121.948;2023-09-18T00:44:58;6.00;;;3.50;;
82635;SDS011;72317;37.280;-121.948;2023-09-18T00:47:25;6.10;;;3.83;;
82635;SDS011;72317;37.280;-121.948;2023-09-18T00:49:51;4.47;;;3.70;;
82635;SDS011;72317;37.280;-121.948;2023-09-18T00:52:19;5.72;;;3.60;;
82635;SDS011;72317;37.280;-121.948;2023-09-18T00:54:46;4.65;;;3.17;;
82635;SDS011;72317;37.280;-121.948;2023-09-18T00:57:13;6.50;;;4.15;;
82635;SDS011;72317;37.280;-121.948;2023-09-18T00:59:40;6.38;;;3.58;;
82635;SDS011;72317;37.280;-121.948;2023-09-18T01:02:07;4.25;;;3.53;;
82635;SDS011;72317;37.280;-121.948;2023-09-18T01:04:34;6.15;;;3.75;;
82635;SDS011;72317;37.280;-121.948;2023-09-18T01:07:00;5.20;;;3.17;;
82635;SDS011;72317;37.280;-121.948;2023-09-18T01:09:30;4.97;;;3.30;;
82635;SDS011;72317;37.280;-121.948;2023-09-18T01:14:34;5.13;;;3.30;;
82635;SDS011;72317;37.280;-121.948;2023-09-18T01:17:06;3.55;;;2.90;;
82635;SDS011;72317;37.280;-121.948;2023-09-18T01:19:37;5.25;;;3.35;;
82635;SDS011;72317;37.280;-121.948;2023-09-18T01:22:07;5.85;;;3.00;;
82635;SDS011;72317;37.280;-121.948;2023-09-18T01:24:35;3.75;;;3.03;;
82635;SDS011;72317;37.280;-121.948;2023-09-18T01:27:03;4.30;;;3.30;;
82635;SDS011;72317;37.280;-121.948;2023-09-18T01:29:31;6.53;;;3.20;;
82635;SDS011;72317;37.280;-121.948;2023-09-18T01:31:57;3.78;;;2.97;;
82635;SDS011;72317;37.280;-121.948;2023-09-18T01:34:28;4.10;;;2.83;;
82635;SDS011;72317;37.280;-121.948;2023-09-18T01:37:02;4.05;;;3.05;;
82635;SDS011;72317;37.280;-121.948;2023-09-18T01:39:31;5.78;;;4.20;;
82635;SDS011;72317;37.280;-121.948;2023-09-18T01:42:00;5.07;;;3.75;;
82635;SDS011;72317;37.280;-121.948;2023-09-18T01:44:36;3.97;;;3.28;;
82635;SDS011;72317;37.280;-121.948;2023-09-18T01:47:04;3.42;;;2.80;;
82635;SDS011;72317;37.280;-121.948;2023-09-18T01:49:36;3.20;;;2.80;;
82635;SDS011;72317;37.280;-121.948;2023-09-18T01:52:04;4.38;;;3.38;;
82635;SDS011;72317;37.280;-121.948;2023-09-18T01:54:32;4.20;;;3.22;;
82635;SDS011;72317;37.280;-121.948;2023-09-18T01:56:59;6.10;;;3.10;;
82635;SDS011;72317;37.280;-121.948;2023-09-18T01:59:26;3.58;;;2.90;;
82635;SDS011;72317;37.280;-121.948;2023-09-18T02:01:52;4.28;;;2.78;;
82635;SDS011;72317;37.280;-121.948;2023-09-18T02:04:19;3.33;;;2.50;;
82635;SDS011;72317;37.280;-121.948;2023-09-18T02:06:46;3.70;;;3.17;;
82635;SDS011;72317;37.280;-121.948;2023-09-18T02:09:14;5.43;;;3.42;;
82635;SDS011;72317;37.280;-121.948;2023-09-18T02:11:41;4.68;;;2.95;;
82635;SDS011;72317;37.280;-121.948;2023-09-18T02:14:09;3.97;;;3.10;;
82635;SDS011;72317;37.280;-121.948;2023-09-18T02:16:37;4.30;;;2.88;;
82635;SDS011;72317;37.280;-121.948;2023-09-18T02:19:06;5.28;;;3.20;;
82635;SDS011;72317;37.280;-121.948;2023-09-18T02:21:36;3.15;;;2.70;;
82635;SDS011;72317;37.280;-121.948;2023-09-18T02:24:03;4.60;;;2.90;;
82635;SDS011;72317;37.280;-121.948;2023-09-18T02:26:29;4.82;;;3.20;;
82635;SDS011;72317;37.280;-121.948;2023-09-18T02:28:58;4.57;;;2.85;;
82635;SDS011;72317;37.280;-121.948;2023-09-18T02:31:26;3.78;;;3.35;;
82635;SDS011;72317;37.280;-121.948;2023-09-18T02:33:52;5.60;;;3.38;;
82635;SDS011;72317;37.280;-121.948;2023-09-18T02:36:18;3.28;;;2.80;;
82635;SDS011;72317;37.280;-121.948;2023-09-18T02:38:44;3.47;;;2.92;;
82635;SDS011;72317;37.280;-121.948;2023-09-18T02:41:11;4.35;;;3.05;;
82635;SDS011;72317;37.280;-121.948;2023-09-18T02:43:37;5.05;;;3.30;;
82635;SDS011;72317;37.280;-121.948;2023-09-18T02:46:03;4.50;;;2.92;;
82635;SDS011;72317;37.280;-121.948;2023-09-18T02:48:30;4.15;;;2.88;;
82635;SDS011;72317;37.280;-121.948;2023-09-18T02:50:58;5.30;;;2.90;;
82635;SDS011;72317;37.280;-121.948;2023-09-18T02:53:25;5.30;;;3.47;;
82635;SDS011;72317;37.280;-121.948;2023-09-18T02:55:52;4.07;;;3.30;;
82635;SDS011;72317;37.280;-121.948;2023-09-18T02:58:22;6.18;;;3.38;;
82635;SDS011;72317;37.280;-121.948;2023-09-18T03:00:51;4.25;;;3.55;;
82635;SDS011;72317;37.280;-121.948;2023-09-18T03:03:21;4.13;;;3.30;;
82635;SDS011;72317;37.280;-121.948;2023-09-18T03:05:48;5.63;;;3.38;;
82635;SDS011;72317;37.280;-121.948;2023-09-18T03:08:14;6.72;;;3.60;;
82635;SDS011;72317;37.280;-121.948;2023-09-18T03:10:43;4.85;;;3.40;;
82635;SDS011;72317;37.280;-121.948;2023-09-18T03:13:11;5.68;;;3.80;;
82635;SDS011;72317;37.280;-121.948;2023-09-18T03:15:39;5.03;;;3.72;;
82635;SDS011;72317;37.280;-121.948;2023-09-18T03:18:06;5.03;;;3.63;;
82635;SDS011;72317;37.280;-121.948;2023-09-18T03:20:35;5.63;;;3.60;;
82635;SDS011;72317;37.280;-121.948;2023-09-18T03:23:01;5.20;;;3.80;;
82635;SDS011;72317;37.280;-121.948;2023-09-18T03:25:28;4.20;;;3.80;;
82635;SDS011;72317;37.280;-121.948;2023-09-18T03:27:55;4.88;;;3.60;;
82635;SDS011;72317;37.280;-121.948;2023-09-18T03:30:23;4.32;;;3.63;;
82635;SDS011;72317;37.280;-121.948;2023-09-18T03:32:50;6.85;;;3.95;;
82635;SDS011;72317;37.280;-121.948;2023-09-18T03:35:17;5.50;;;4.20;;
82635;SDS011;72317;37.280;-121.948;2023-09-18T03:37:44;5.05;;;3.95;;
82635;SDS011;72317;37.280;-121.948;2023-09-18T03:40:16;5.15;;;4.03;;
82635;SDS011;72317;37.280;-121.948;2023-09-18T03:42:43;5.63;;;4.10;;
82635;SDS011;72317;37.280;-121.948;2023-09-18T03:45:09;5.38;;;3.97;;
82635;SDS011;72317;37.280;-121.948;2023-09-18T03:47:36;5.68;;;4.20;;
82635;SDS011;72317;37.280;-121.948;2023-09-18T03:50:06;6.45;;;4.45;;
82635;SDS011;72317;37.280;-121.948;2023-09-18T03:52:34;7.18;;;4.43;;
82635;SDS011;72317;37.280;-121.948;2023-09-18T03:55:00;5.78;;;4.00;;
82635;SDS011;72317;37.280;-121.948;2023-09-18T03:57:26;5.63;;;4.30;;
82635;SDS011;72317;37.280;-121.948;2023-09-18T03:59:52;6.03;;;4.60;;
82635;SDS011;72317;37.280;-121.948;2023-09-18T04:02:19;5.65;;;4.40;;
82635;SDS011;72317;37.280;-121.948;2023-09-18T04:04:46;4.40;;;4.00;;
82635;SDS011;72317;37.280;-121.948;2023-09-18T04:07:12;6.45;;;4.65;;
82635;SDS011;72317;37.280;-121.948;2023-09-18T04:09:41;5.38;;;4.72;;
82635;SDS011;72317;37.280;-121.948;2023-09-18T04:12:08;7.35;;;5.30;;
82635;SDS011;72317;37.280;-121.948;2023-09-18T04:14:34;6.43;;;4.90;;
82635;SDS011;72317;37.280;-121.948;2023-09-18T04:17:01;5.88;;;4.78;;
82635;SDS011;72317;37.280;-121.948;2023-09-18T04:19:28;6.32;;;5.05;;
82635;SDS011;72317;37.280;-121.948;2023-09-18T04:21:54;6.97;;;4.85;;
82635;SDS011;72317;37.280;-121.948;2023-09-18T04:24:21;6.50;;;5.00;;
82635;SDS011;72317;37.280;-121.948;2023-09-18T04:26:48;5.75;;;4.60;;
82635;SDS011;72317;37.280;-121.948;2023-09-18T04:29:16;6.90;;;5.13;;
82635;SDS011;72317;37.280;-121.948;2023-09-18T04:31:43;7.18;;;5.10;;
82635;SDS011;72317;37.280;-121.948;2023-09-18T04:34:10;6.78;;;5.35;;
82635;SDS011;72317;37.280;-121.948;2023-09-18T04:36:37;8.82;;;5.47;;
82635;SDS011;72317;37.280;-121.948;2023-09-18T04:39:03;7.28;;;5.70;;
82635;SDS011;72317;37.280;-121.948;2023-09-18T04:41:31;5.97;;;5.38;;
82635;SDS011;72317;37.280;-121.948;2023-09-18T04:43:58;6.28;;;5.18;;
82635;SDS011;72317;37.280;-121.948;2023-09-18T04:46:25;10.15;;;5.30;;
82635;SDS011;72317;37.280;-121.948;2023-09-18T04:48:51;7.80;;;5.32;;
82635;SDS011;72317;37.280;-121.948;2023-09-18T04:51:17;8.35;;;5.53;;
82635;SDS011;72317;37.280;-121.948;2023-09-18T04:53:43;5.65;;;5.05;;
82635;SDS011;72317;37.280;-121.948;2023-09-18T04:56:10;7.10;;;5.20;;
82635;SDS011;72317;37.280;-121.948;2023-09-18T04:58:36;6.43;;;5.60;;
82635;SDS011;72317;37.280;-121.948;2023-09-18T05:01:03;8.13;;;5.57;;
82635;SDS011;72317;37.280;-121.948;2023-09-18T05:03:32;8.00;;;5.38;;
82635;SDS011;72317;37.280;-121.948;2023-09-18T05:05:59;8.23;;;5.70;;
82635;SDS011;72317;37.280;-121.948;2023-09-18T05:08:26;6.53;;;5.22;;
82635;SDS011;72317;37.280;-121.948;2023-09-18T05:10:52;7.57;;;5.40;;
82635;SDS011;72317;37.280;-121.948;2023-09-18T05:13:18;6.50;;;5.13;;
82635;SDS011;72317;37.280;-121.948;2023-09-18T05:15:44;7.75;;;4.82;;
82635;SDS011;72317;37.280;-121.948;2023-09-18T05:18:10;5.97;;;5.30;;
82635;SDS011;72317;37.280;-121.948;2023-09-18T05:20:37;8.18;;;5.70;;
82635;SDS011;72317;37.280;-121.948;2023-09-18T05:23:03;7.95;;;5.93;;
82635;SDS011;72317;37.280;-121.948;2023-09-18T05:25:29;6.95;;;5.28;;
82635;SDS011;72317;37.280;-121.948;2023-09-18T05:27:59;7.55;;;5.53;;
82635;SDS011;72317;37.280;-121.948;2023-09-18T05:33:00;6.85;;;5.35;;
82635;SDS011;72317;37.280;-121.948;2023-09-18T05:35:34;5.70;;;5.05;;
82635;SDS011;72317;37.280;-121.948;2023-09-18T05:38:04;6.95;;;5.55;;
82635;SDS011;72317;37.280;-121.948;2023-09-18T05:40:30;6.07;;;5.28;;
82635;SDS011;72317;37.280;-121.948;2023-09-18T05:42:57;7.05;;;5.40;;
82635;SDS011;72317;37.280;-121.948;2023-09-18T05:45:23;8.23;;;5.45;;
82635;SDS011;72317;37.280;-121.948;2023-09-18T05:47:51;6.57;;;5.72;;
82635;SDS011;72317;37.280;-121.948;2023-09-18T05:50:18;8.57;;;5.68;;
82635;SDS011;72317;37.280;-121.948;2023-09-18T05:52:48;7.70;;;5.72;;
82635;SDS011;72317;37.280;-121.948;2023-09-18T05:55:15;7.60;;;6.22;;
82635;SDS011;72317;37.280;-121.948;2023-09-18T05:57:41;7.47;;;5.47;;
82635;SDS011;72317;37.280;-121.948;2023-09-18T06:00:07;6.28;;;5.05;;
82635;SDS011;72317;37.280;-121.948;2023-09-18T06:02:39;7.45;;;5.38;;
82635;SDS011;72317;37.280;-121.948;2023-09-18T06:05:05;6.82;;;5.70;;
82635;SDS011;72317;37.280;-121.948;2023-09-18T06:07:32;8.80;;;6.03;;
82635;SDS011;72317;37.280;-121.948;2023-09-18T06:09:59;6.18;;;5.50;;
82635;SDS011;72317;37.280;-121.948;2023-09-18T06:12:25;6.80;;;5.80;;
82635;SDS011;72317;37.280;-121.948;2023-09-18T06:14:51;7.40;;;6.10;;
82635;SDS011;72317;37.280;-121.948;2023-09-18T06:17:18;7.55;;;5.70;;
82635;SDS011;72317;37.280;-121.948;2023-09-18T06:19:44;9.27;;;5.95;;
82635;SDS011;72317;37.280;-121.948;2023-09-18T06:22:11;8.32;;;6.05;;
82635;SDS011;72317;37.280;-121.948;2023-09-18T06:24:37;7.85;;;6.28;;
82635;SDS011;72317;37.280;-121.948;2023-09-18T06:27:04;8.43;;;6.45;;
82635;SDS011;72317;37.280;-121.948;2023-09-18T06:29:31;7.40;;;6.22;;
82635;SDS011;72317;37.280;-121.948;2023-09-18T06:32:00;8.88;;;6.20;;
82635;SDS011;72317;37.280;-121.948;2023-09-18T06:34:27;7.32;;;5.85;;
82635;SDS011;72317;37.280;-121.948;2023-09-18T06:36:54;6.82;;;6.00;;
82635;SDS011;72317;37.280;-121.948;2023-09-18T06:39:20;7.05;;;5.80;;
82635;SDS011;72317;37.280;-121.948;2023-09-18T06:41:49;7.53;;;6.10;;
82635;SDS011;72317;37.280;-121.948;2023-09-18T06:44:15;8.20;;;6.07;;
82635;SDS011;72317;37.280;-121.948;2023-09-18T06:46:41;7.70;;;6.10;;
82635;SDS011;72317;37.280;-121.948;2023-09-18T06:49:07;7.05;;;5.93;;
82635;SDS011;72317;37.280;-121.948;2023-09-18T06:51:33;10.48;;;7.07;;
82635;SDS011;72317;37.280;-121.948;2023-09-18T06:54:00;6.50;;;5.78;;
82635;SDS011;72317;37.280;-121.948;2023-09-18T06:56:28;8.73;;;6.80;;
82635;SDS011;72317;37.280;-121.948;2023-09-18T06:58:54;8.52;;;6.80;;
82635;SDS011;72317;37.280;-121.948;2023-09-18T07:01:21;7.93;;;6.10;;
82635;SDS011;72317;37.280;-121.948;2023-09-18T07:03:49;9.02;;;6.68;;
82635;SDS011;72317;37.280;-121.948;2023-09-18T07:06:15;9.35;;;6.65;;
82635;SDS011;72317;37.280;-121.948;2023-09-18T07:08:43;8.77;;;6.22;;
82635;SDS011;72317;37.280;-121.948;2023-09-18T07:11:10;9.30;;;6.82;;
82635;SDS011;72317;37.280;-121.948;2023-09-18T07:13:37;8.32;;;6.22;;
82635;SDS011;72317;37.280;-121.948;2023-09-18T07:16:04;8.48;;;6.85;;
82635;SDS011;72317;37.280;-121.948;2023-09-18T07:18:31;9.07;;;6.32;;
82635;SDS011;72317;37.280;-121.948;2023-09-18T07:20:58;7.35;;;6.03;;
82635;SDS011;72317;37.280;-121.948;2023-09-18T07:23:24;7.10;;;5.85;;
82635;SDS011;72317;37.280;-121.948;2023-09-18T07:25:50;8.00;;;6.60;;
82635;SDS011;72317;37.280;-121.948;2023-09-18T07:28:16;8.57;;;6.40;;
82635;SDS011;72317;37.280;-121.948;2023-09-18T07:30:44;9.32;;;6.57;;
82635;SDS011;72317;37.280;-121.948;2023-09-18T07:33:11;9.45;;;6.70;;
82635;SDS011;72317;37.280;-121.948;2023-09-18T07:35:37;7.88;;;6.35;;
82635;SDS011;72317;37.280;-121.948;2023-09-18T07:38:04;7.20;;;6.47;;
82635;SDS011;72317;37.280;-121.948;2023-09-18T07:40:30;10.60;;;6.93;;
82635;SDS011;72317;37.280;-121.948;2023-09-18T07:42:56;9.18;;;6.47;;
82635;SDS011;72317;37.280;-121.948;2023-09-18T07:45:23;10.15;;;6.38;;
82635;SDS011;72317;37.280;-121.948;2023-09-18T07:47:49;7.65;;;5.90;;
82635;SDS011;72317;37.280;-121.948;2023-09-18T07:50:15;7.65;;;5.63;;
82635;SDS011;72317;37.280;-121.948;2023-09-18T07:52:43;6.70;;;5.82;;
82635;SDS011;72317;37.280;-121.948;2023-09-18T07:55:09;8.73;;;5.93;;
82635;SDS011;72317;37.280;-121.948;2023-09-18T07:57:35;7.03;;;5.53;;
82635;SDS011;72317;37.280;-121.948;2023-09-18T08:00:03;6.40;;;5.63;;
82635;SDS011;72317;37.280;-121.948;2023-09-18T08:02:36;7.30;;;5.57;;
82635;SDS011;72317;37.280;-121.948;2023-09-18T08:05:04;6.95;;;5.63;;
82635;SDS011;72317;37.280;-121.948;2023-09-18T08:07:30;7.18;;;5.43;;
82635;SDS011;72317;37.280;-121.948;2023-09-18T08:09:57;8.60;;;5.50;;
82635;SDS011;72317;37.280;-121.948;2023-09-18T08:12:23;7.32;;;5.63;;
82635;SDS011;72317;37.280;-121.948;2023-09-18T08:15:10;6.47;;;5.30;;
82635;SDS011;72317;37.280;-121.948;2023-09-18T08:17:36;5.82;;;5.22;;
82635;SDS011;72317;37.280;-121.948;2023-09-18T08:20:03;9.02;;;5.50;;
82635;SDS011;72317;37.280;-121.948;2023-09-18T08:22:37;6.13;;;5.30;;
82635;SDS011;72317;37.280;-121.948;2023-09-18T08:25:03;6.45;;;5.25;;
82635;SDS011;72317;37.280;-121.948;2023-09-18T08:27:30;6.88;;;5.20;;
82635;SDS011;72317;37.280;-121.948;2023-09-18T08:29:56;6.75;;;4.88;;
82635;SDS011;72317;37.280;-121.948;2023-09-18T08:32:23;6.38;;;4.95;;
82635;SDS011;72317;37.280;-121.948;2023-09-18T08:34:49;6.43;;;5.22;;
82635;SDS011;72317;37.280;-121.948;2023-09-18T08:37:15;6.53;;;5.07;;
82635;SDS011;72317;37.280;-121.948;2023-09-18T08:39:42;7.78;;;4.78;;
82635;SDS011;72317;37.280;-121.948;2023-09-18T08:42:08;6.00;;;4.63;;
82635;SDS011;72317;37.280;-121.948;2023-09-18T08:44:36;5.97;;;4.85;;
82635;SDS011;72317;37.280;-121.948;2023-09-18T08:47:07;6.18;;;4.80;;
82635;SDS011;72317;37.280;-121.948;2023-09-18T08:49:36;6.65;;;4.90;;
82635;SDS011;72317;37.280;-121.948;2023-09-18T08:52:03;5.50;;;4.97;;
82635;SDS011;72317;37.280;-121.948;2023-09-18T08:54:30;6.43;;;4.93;;
82635;SDS011;72317;37.280;-121.948;2023-09-18T08:56:58;7.15;;;5.13;;
82635;SDS011;72317;37.280;-121.948;2023-09-18T08:59:25;7.22;;;5.00;;
82635;SDS011;72317;37.280;-121.948;2023-09-18T09:01:53;5.95;;;5.05;;
82635;SDS011;72317;37.280;-121.948;2023-09-18T09:04:19;5.68;;;4.80;;
82635;SDS011;72317;37.280;-121.948;2023-09-18T09:06:46;6.30;;;5.05;;
82635;SDS011;72317;37.280;-121.948;2023-09-18T09:09:12;7.50;;;4.65;;
82635;SDS011;72317;37.280;-121.948;2023-09-18T09:11:40;5.15;;;4.43;;
82635;SDS011;72317;37.280;-121.948;2023-09-18T09:14:14;6.00;;;4.90;;
82635;SDS011;72317;37.280;-121.948;2023-09-18T09:16:50;6.55;;;4.50;;
82635;SDS011;72317;37.280;-121.948;2023-09-18T09:19:17;6.25;;;4.57;;
82635;SDS011;72317;37.280;-121.948;2023-09-18T09:21:44;6.15;;;4.53;;
82635;SDS011;72317;37.280;-121.948;2023-09-18T09:24:12;6.72;;;4.72;;
82635;SDS011;72317;37.280;-121.948;2023-09-18T09:26:41;5.05;;;4.55;;
82635;SDS011;72317;37.280;-121.948;2023-09-18T09:29:17;4.78;;;4.13;;
82635;SDS011;72317;37.280;-121.948;2023-09-18T09:31:45;5.03;;;4.20;;
82635;SDS011;72317;37.280;-121.948;2023-09-18T09:34:12;5.32;;;4.55;;
82635;SDS011;72317;37.280;-121.948;2023-09-18T09:36:55;5.43;;;4.35;;
82635;SDS011;72317;37.280;-121.948;2023-09-18T09:39:22;6.10;;;4.50;;
82635;SDS011;72317;37.280;-121.948;2023-09-18T09:41:51;6.78;;;4.65;;
82635;SDS011;72317;37.280;-121.948;2023-09-18T09:44:19;7.05;;;4.57;;
82635;SDS011;72317;37.280;-121.948;2023-09-18T09:46:47;5.68;;;4.70;;
82635;SDS011;72317;37.280;-121.948;2023-09-18T09:49:14;5.88;;;4.65;;
82635;SDS011;72317;37.280;-121.948;2023-09-18T09:51:41;7.25;;;4.90;;
82635;SDS011;72317;37.280;-121.948;2023-09-18T09:54:08;6.47;;;4.43;;
82635;SDS011;72317;37.280;-121.948;2023-09-18T09:56:43;4.43;;;4.00;;
82635;SDS011;72317;37.280;-121.948;2023-09-18T09:59:10;5.47;;;4.88;;
82635;SDS011;72317;37.280;-121.948;2023-09-18T10:01:38;5.72;;;4.43;;
82635;SDS011;72317;37.280;-121.948;2023-09-18T10:04:15;6.47;;;4.50;;
82635;SDS011;72317;37.280;-121.948;2023-09-18T10:06:43;5.18;;;4.55;;
82635;SDS011;72317;37.280;-121.948;2023-09-18T10:09:12;6.32;;;4.68;;
82635;SDS011;72317;37.280;-121.948;2023-09-18T10:11:46;6.35;;;4.45;;
82635;SDS011;72317;37.280;-121.948;2023-09-18T10:14:21;7.35;;;4.70;;
82635;SDS011;72317;37.280;-121.948;2023-09-18T10:17:16;4.90;;;4.40;;
82635;SDS011;72317;37.280;-121.948;2023-09-18T10:19:49;6.15;;;4.80;;
82635;SDS011;72317;37.280;-121.948;2023-09-18T10:22:42;5.57;;;4.35;;
82635;SDS011;72317;37.280;-121.948;2023-09-18T10:27:50;5.43;;;4.30;;
82635;SDS011;72317;37.280;-121.948;2023-09-18T10:30:29;5.45;;;4.45;;
82635;SDS011;72317;37.280;-121.948;2023-09-18T10:32:58;6.15;;;4.75;;
82635;SDS011;72317;37.280;-121.948;2023-09-18T10:35:26;5.63;;;4.00;;
82635;SDS011;72317;37.280;-121.948;2023-09-18T10:37:54;5.80;;;4.32;;
82635;SDS011;72317;37.280;-121.948;2023-09-18T10:40:21;4.63;;;4.22;;
82635;SDS011;72317;37.280;-121.948;2023-09-18T10:42:51;5.80;;;4.05;;
82635;SDS011;72317;37.280;-121.948;2023-09-18T10:45:19;4.90;;;3.95;;
82635;SDS011;72317;37.280;-121.948;2023-09-18T10:47:46;4.93;;;4.20;;
82635;SDS011;72317;37.280;-121.948;2023-09-18T10:50:22;6.03;;;4.30;;
82635;SDS011;72317;37.280;-121.948;2023-09-18T10:52:50;4.80;;;4.30;;
82635;SDS011;72317;37.280;-121.948;2023-09-18T10:55:16;5.53;;;4.13;;
82635;SDS011;72317;37.280;-121.948;2023-09-18T10:57:52;6.55;;;4.30;;
82635;SDS011;72317;37.280;-121.948;2023-09-18T11:00:21;6.90;;;4.25;;
82635;SDS011;72317;37.280;-121.948;2023-09-18T11:02:53;6.38;;;4.53;;
82635;SDS011;72317;37.280;-121.948;2023-09-18T11:05:35;6.80;;;4.47;;
82635;SDS011;72317;37.280;-121.948;2023-09-18T11:11:03;5.20;;;3.90;;
82635;SDS011;72317;37.280;-121.948;2023-09-18T11:13:35;6.75;;;3.95;;
82635;SDS011;72317;37.280;-121.948;2023-09-18T11:18:51;4.95;;;4.18;;
82635;SDS011;72317;37.280;-121.948;2023-09-18T11:21:24;5.03;;;3.67;;
82635;SDS011;72317;37.280;-121.948;2023-09-18T11:23:58;4.00;;;3.58;;
82635;SDS011;72317;37.280;-121.948;2023-09-18T11:26:28;4.82;;;3.95;;
82635;SDS011;72317;37.280;-121.948;2023-09-18T11:28:58;6.35;;;4.30;;
82635;SDS011;72317;37.280;-121.948;2023-09-18T11:34:14;4.75;;;3.92;;
82635;SDS011;72317;37.280;-121.948;2023-09-18T11:36:44;5.10;;;3.90;;
82635;SDS011;72317;37.280;-121.948;2023-09-18T11:39:11;5.22;;;4.15;;
82635;SDS011;72317;37.280;-121.948;2023-09-18T11:41:38;6.10;;;4.00;;
82635;SDS011;72317;37.280;-121.948;2023-09-18T11:46:50;6.55;;;4.13;;
82635;SDS011;72317;37.280;-121.948;2023-09-18T11:49:21;4.88;;;4.25;;
82635;SDS011;72317;37.280;-121.948;2023-09-18T11:51:48;5.38;;;3.88;;
82635;SDS011;72317;37.280;-121.948;2023-09-18T11:54:16;5.88;;;4.05;;
82635;SDS011;72317;37.280;-121.948;2023-09-18T11:56:43;6.10;;;4.47;;
82635;SDS011;72317;37.280;-121.948;2023-09-18T11:59:10;6.32;;;4.20;;
82635;SDS011;72317;37.280;-121.948;2023-09-18T12:01:37;4.70;;;4.20;;
82635;SDS011;72317;37.280;-121.948;2023-09-18T12:04:04;6.03;;;4.03;;
82635;SDS011;72317;37.280;-121.948;2023-09-18T12:06:34;5.75;;;4.15;;
82635;SDS011;72317;37.280;-121.948;2023-09-18T12:09:02;5.85;;;4.45;;
82635;SDS011;72317;37.280;-121.948;2023-09-18T12:11:29;4.72;;;3.85;;
82635;SDS011;72317;37.280;-121.948;2023-09-18T12:13:55;5.72;;;4.65;;
82635;SDS011;72317;37.280;-121.948;2023-09-18T12:16:23;4.65;;;3.88;;
82635;SDS011;72317;37.280;-121.948;2023-09-18T12:18:49;5.72;;;4.10;;
82635;SDS011;72317;37.280;-121.948;2023-09-18T12:21:16;5.75;;;4.00;;
82635;SDS011;72317;37.280;-121.948;2023-09-18T12:23:44;5.75;;;4.22;;
82635;SDS011;72317;37.280;-121.948;2023-09-18T12:26:12;7.07;;;4.43;;
82635;SDS011;72317;37.280;-121.948;2023-09-18T12:28:39;5.80;;;4.00;;
82635;SDS011;72317;37.280;-121.948;2023-09-18T12:31:09;6.40;;;4.47;;
82635;SDS011;72317;37.280;-121.948;2023-09-18T12:33:36;5.20;;;4.03;;
82635;SDS011;72317;37.280;-121.948;2023-09-18T12:36:04;4.95;;;3.95;;
82635;SDS011;72317;37.280;-121.948;2023-09-18T12:38:31;6.78;;;4.20;;
82635;SDS011;72317;37.280;-121.948;2023-09-18T12:41:01;4.78;;;3.92;;
82635;SDS011;72317;37.280;-121.948;2023-09-18T12:43:38;4.35;;;3.58;;
82635;SDS011;72317;37.280;-121.948;2023-09-18T12:46:09;5.50;;;3.90;;
82635;SDS011;72317;37.280;-121.948;2023-09-18T12:48:39;4.43;;;3.63;;
82635;SDS011;72317;37.280;-121.948;2023-09-18T12:51:10;5.20;;;3.75;;
82635;SDS011;72317;37.280;-121.948;2023-09-18T12:53:37;3.80;;;3.40;;
82635;SDS011;72317;37.280;-121.948;2023-09-18T12:56:13;4.35;;;3.78;;
82635;SDS011;72317;37.280;-121.948;2023-09-18T12:58:40;4.05;;;3.60;;
82635;SDS011;72317;37.280;-121.948;2023-09-18T13:01:08;4.50;;;3.25;;
82635;SDS011;72317;37.280;-121.948;2023-09-18T13:03:36;5.78;;;3.72;;
82635;SDS011;72317;37.280;-121.948;2023-09-18T13:06:08;5.57;;;3.90;;
82635;SDS011;72317;37.280;-121.948;2023-09-18T13:08:35;6.28;;;3.70;;
82635;SDS011;72317;37.280;-121.948;2023-09-18T13:11:02;6.78;;;3.90;;
82635;SDS011;72317;37.280;-121.948;2023-09-18T13:13:32;6.47;;;4.10;;
82635;SDS011;72317;37.280;-121.948;2023-09-18T13:15:58;5.60;;;3.80;;
82635;SDS011;72317;37.280;-121.948;2023-09-18T13:18:25;4.88;;;3.83;;
82635;SDS011;72317;37.280;-121.948;2023-09-18T13:20:52;4.82;;;3.65;;
82635;SDS011;72317;37.280;-121.948;2023-09-18T13:23:19;5.32;;;3.67;;
82635;SDS011;72317;37.280;-121.948;2023-09-18T13:25:46;4.32;;;3.83;;
82635;SDS011;72317;37.280;-121.948;2023-09-18T13:28:13;7.63;;;4.03;;
82635;SDS011;72317;37.280;-121.948;2023-09-18T13:30:40;5.43;;;3.60;;
82635;SDS011;72317;37.280;-121.948;2023-09-18T13:33:08;5.20;;;3.63;;
82635;SDS011;72317;37.280;-121.948;2023-09-18T13:35:36;5.47;;;3.60;;
82635;SDS011;72317;37.280;-121.948;2023-09-18T13:38:07;3.92;;;3.50;;
82635;SDS011;72317;37.280;-121.948;2023-09-18T13:40:37;6.90;;;3.65;;
82635;SDS011;72317;37.280;-121.948;2023-09-18T13:43:05;6.50;;;4.05;;
82635;SDS011;72317;37.280;-121.948;2023-09-18T13:45:32;4.22;;;3.63;;
82635;SDS011;72317;37.280;-121.948;2023-09-18T13:48:00;4.47;;;3.50;;
82635;SDS011;72317;37.280;-121.948;2023-09-18T13:50:27;4.50;;;3.78;;
82635;SDS011;72317;37.280;-121.948;2023-09-18T13:52:53;5.13;;;3.80;;
82635;SDS011;72317;37.280;-121.948;2023-09-18T13:55:19;6.25;;;4.30;;
82635;SDS011;72317;37.280;-121.948;2023-09-18T13:57:46;4.90;;;4.28;;
82635;SDS011;72317;37.280;-121.948;2023-09-18T14:00:13;6.93;;;4.50;;
82635;SDS011;72317;37.280;-121.948;2023-09-18T14:02:40;6.55;;;3.83;;
82635;SDS011;72317;37.280;-121.948;2023-09-18T14:05:07;6.97;;;4.20;;
82635;SDS011;72317;37.280;-121.948;2023-09-18T14:07:35;5.90;;;4.22;;
82635;SDS011;72317;37.280;-121.948;2023-09-18T14:10:04;7.07;;;4.30;;
82635;SDS011;72317;37.280;-121.948;2023-09-18T14:12:32;7.82;;;4.40;;
82635;SDS011;72317;37.280;-121.948;2023-09-18T14:14:59;4.65;;;4.22;;
82635;SDS011;72317;37.280;-121.948;2023-09-18T14:17:25;7.32;;;4.25;;
82635;SDS011;72317;37.280;-121.948;2023-09-18T14:19:51;8.30;;;4.70;;
82635;SDS011;72317;37.280;-121.948;2023-09-18T14:22:20;5.97;;;4.80;;
82635;SDS011;72317;37.280;-121.948;2023-09-18T14:24:47;5.40;;;4.60;;
82635;SDS011;72317;37.280;-121.948;2023-09-18T14:27:13;6.32;;;4.28;;
82635;SDS011;72317;37.280;-121.948;2023-09-18T14:29:39;5.72;;;4.05;;
82635;SDS011;72317;37.280;-121.948;2023-09-18T14:32:05;8.32;;;5.28;;